createdAt,value
2023-01-08T00:02:14.419Z,8.35
2023-01-08T00:04:41.903Z,8.34
2023-01-08T00:07:10.053Z,8.36
2023-01-08T00:09:37.590Z,8.34
2023-01-08T00:12:05.839Z,8.29
2023-01-08T00:14:33.598Z,8.24
2023-01-08T00:17:02.830Z,8.21
2023-01-08T00:19:31.232Z,8.16
2023-01-08T00:21:59.098Z,8.11
2023-01-08T00:24:26.556Z,8.10
2023-01-08T00:26:54.386Z,8.08
2023-01-08T00:29:21.881Z,8.05
2023-01-08T00:31:49.714Z,8.00
2023-01-08T00:34:17.220Z,7.99
2023-01-08T00:36:45.122Z,7.98
2023-01-08T00:39:12.776Z,7.97
2023-01-08T00:41:44.284Z,7.99
2023-01-08T00:44:11.835Z,7.99
2023-01-08T00:46:39.655Z,8.00
2023-01-08T00:49:07.268Z,7.97
2023-01-08T00:51:35.101Z,7.97
2023-01-08T00:54:02.550Z,7.95
2023-01-08T00:56:30.460Z,7.92
2023-01-08T00:58:58.293Z,7.90
2023-01-08T01:01:26.379Z,7.88
2023-01-08T01:03:53.940Z,7.88
2023-01-08T01:06:22.036Z,7.86
2023-01-08T01:08:49.649Z,7.86
2023-01-08T01:11:25.109Z,7.92
2023-01-08T01:13:55.339Z,7.92
2023-01-08T01:16:24.343Z,7.94
2023-01-08T01:18:52.529Z,7.97
2023-01-08T01:21:27.155Z,8.02
2023-01-08T01:23:57.590Z,8.10
2023-01-08T01:26:27.284Z,8.20
2023-01-08T01:28:57.992Z,8.28
2023-01-08T01:31:29.655Z,8.42
2023-01-08T01:33:57.193Z,8.50
2023-01-08T01:36:26.828Z,8.50
2023-01-08T01:38:57.248Z,8.51
2023-01-08T01:41:34.031Z,8.57
2023-01-08T01:44:43.685Z,8.67
2023-01-08T01:47:28.406Z,8.70
2023-01-08T01:50:09.345Z,8.76
2023-01-08T01:52:55.182Z,8.70
2023-01-08T01:55:22.753Z,8.70
2023-01-08T01:58:01.664Z,8.76
2023-01-08T02:00:29.654Z,8.77
2023-01-08T02:02:57.618Z,8.78
2023-01-08T02:05:49.865Z,8.79
2023-01-08T02:09:07.941Z,8.77
2023-01-08T02:12:19.079Z,8.76
2023-01-08T02:15:05.176Z,8.78
2023-01-08T02:17:43.712Z,8.83
2023-01-08T02:20:19.134Z,8.72
2023-01-08T02:22:58.073Z,8.70
2023-01-08T02:25:55.399Z,8.70
2023-01-08T02:28:24.511Z,8.66
2023-01-08T02:31:13.172Z,8.74
2023-01-08T02:33:41.157Z,8.74
2023-01-08T02:36:46.892Z,8.75
2023-01-08T02:39:30.813Z,8.74
2023-01-08T02:42:27.055Z,8.64
2023-01-08T02:45:35.802Z,8.55
2023-01-08T02:48:30.266Z,8.51
2023-01-08T02:51:40.319Z,8.47
2023-01-08T02:54:15.640Z,8.39
2023-01-08T02:56:49.253Z,8.40
2023-01-08T02:59:19.377Z,8.41
2023-01-08T03:01:47.592Z,8.42
2023-01-08T03:04:21.278Z,8.39
2023-01-08T03:06:49.671Z,8.37
2023-01-08T03:09:18.669Z,8.41
2023-01-08T03:12:12.055Z,8.49
2023-01-08T03:14:43.683Z,8.47
2023-01-08T03:17:28.518Z,8.46
2023-01-08T03:20:14.114Z,8.48
2023-01-08T03:22:45.918Z,8.50
2023-01-08T03:25:17.420Z,8.49
2023-01-08T03:27:54.784Z,8.46
2023-01-08T03:30:24.855Z,8.40
2023-01-08T03:32:54.418Z,8.36
2023-01-08T03:35:25.216Z,8.33
2023-01-08T03:38:05.005Z,8.27
2023-01-08T03:40:44.787Z,8.24
2023-01-08T03:43:12.557Z,8.19
2023-01-08T03:45:50.128Z,8.13
2023-01-08T03:48:21.461Z,8.10
2023-01-08T03:50:49.583Z,8.03
2023-01-08T03:53:17.481Z,7.98
2023-01-08T03:55:45.373Z,7.95
2023-01-08T03:58:12.936Z,7.92
2023-01-08T04:00:40.905Z,7.85
2023-01-08T04:03:08.590Z,7.80
2023-01-08T04:05:36.787Z,7.76
2023-01-08T04:08:04.541Z,7.71
2023-01-08T04:10:32.481Z,7.65
2023-01-08T04:13:00.092Z,7.62
2023-01-08T04:15:27.962Z,7.59
2023-01-08T04:17:55.524Z,7.57
2023-01-08T04:20:23.318Z,7.56
2023-01-08T04:22:50.922Z,7.52
2023-01-08T04:25:19.377Z,7.53
2023-01-08T04:27:46.866Z,7.51
2023-01-08T04:30:14.839Z,7.47
2023-01-08T04:32:42.427Z,7.48
2023-01-08T04:35:10.664Z,7.46
2023-01-08T04:37:38.189Z,7.41
2023-01-08T04:40:06.971Z,7.43
2023-01-08T04:42:34.496Z,7.39
2023-01-08T04:45:02.495Z,7.35
2023-01-08T04:47:30.022Z,7.34
2023-01-08T04:49:57.981Z,7.31
2023-01-08T04:52:25.520Z,7.30
2023-01-08T04:54:54.545Z,7.26
2023-01-08T04:57:22.051Z,7.24
2023-01-08T04:59:49.874Z,7.26
2023-01-08T05:02:17.522Z,7.26
2023-01-08T05:04:45.461Z,7.25
2023-01-08T05:07:12.928Z,7.26
2023-01-08T05:09:40.929Z,7.27
2023-01-08T05:12:08.393Z,7.29
2023-01-08T05:14:36.199Z,7.27
2023-01-08T05:17:03.773Z,7.29
2023-01-08T05:19:31.603Z,7.28
2023-01-08T05:21:59.264Z,7.29
2023-01-08T05:24:27.120Z,7.29
2023-01-08T05:26:54.659Z,7.33
2023-01-08T05:29:22.587Z,7.37
2023-01-08T05:31:50.033Z,7.42
2023-01-08T05:34:17.913Z,7.47
2023-01-08T05:36:45.506Z,7.52
2023-01-08T05:39:13.500Z,7.56
2023-01-08T05:41:41.090Z,7.61
2023-01-08T05:44:10.623Z,7.62
2023-01-08T05:46:38.266Z,7.60
2023-01-08T05:49:06.082Z,7.60
2023-01-08T05:51:33.569Z,7.59
2023-01-08T05:54:01.410Z,7.58
2023-01-08T05:56:28.841Z,7.55
2023-01-08T05:58:56.822Z,7.53
2023-01-08T06:01:24.402Z,7.51
2023-01-08T06:03:56.795Z,7.48
2023-01-08T06:06:24.477Z,7.46
2023-01-08T06:08:52.481Z,7.47
2023-01-08T06:11:20.093Z,7.48
2023-01-08T06:13:47.932Z,7.51
2023-01-08T06:16:17.434Z,7.56
2023-01-08T06:18:45.323Z,7.60
2023-01-08T06:21:13.531Z,7.63
2023-01-08T06:23:41.621Z,7.70
2023-01-08T06:26:09.293Z,7.72
2023-01-08T06:28:37.121Z,7.75
2023-01-08T06:31:04.993Z,7.75
2023-01-08T06:33:33.754Z,7.78
2023-01-08T06:36:04.557Z,7.79
2023-01-08T06:38:35.033Z,7.86
2023-01-08T06:41:08.688Z,7.93
2023-01-08T06:43:38.702Z,8.00
2023-01-08T06:46:08.864Z,8.06
2023-01-08T06:48:37.455Z,8.07
2023-01-08T06:51:05.375Z,8.08
2023-01-08T06:53:33.474Z,8.09
2023-01-08T06:56:02.312Z,8.12
2023-01-08T06:58:30.533Z,8.15
2023-01-08T07:00:59.125Z,8.20
2023-01-08T07:03:27.408Z,8.30
2023-01-08T07:05:56.111Z,8.39
2023-01-08T07:08:24.362Z,8.50
2023-01-08T07:10:51.812Z,8.59
2023-01-08T07:13:19.795Z,8.70
2023-01-08T07:15:47.308Z,8.78
2023-01-08T07:18:15.307Z,8.84
2023-01-08T07:20:42.781Z,8.88
2023-01-08T07:23:12.515Z,8.92
2023-01-08T07:25:40.440Z,8.93
2023-01-08T07:28:12.777Z,8.95
2023-01-08T07:30:41.253Z,8.98
2023-01-08T07:33:09.396Z,8.98
2023-01-08T07:35:39.013Z,8.97
2023-01-08T07:38:06.988Z,9.01
2023-01-08T07:40:34.663Z,9.01
2023-01-08T07:43:04.901Z,9.03
2023-01-08T07:45:32.652Z,9.06
2023-01-08T07:48:01.113Z,9.10
2023-01-08T07:50:29.042Z,9.14
2023-01-08T07:53:01.560Z,9.19
2023-01-08T07:55:30.788Z,9.22
2023-01-08T07:57:58.916Z,9.26
2023-01-08T08:00:27.195Z,9.31
2023-01-08T08:02:55.209Z,9.32
2023-01-08T08:05:22.970Z,9.36
2023-01-08T08:07:50.897Z,9.42
2023-01-08T08:10:18.578Z,9.45
2023-01-08T08:12:46.413Z,9.51
2023-01-08T08:15:14.315Z,9.54
2023-01-08T08:17:48.615Z,9.59
2023-01-08T08:20:16.808Z,9.65
2023-01-08T08:22:44.924Z,9.71
2023-01-08T08:25:15.280Z,9.75
2023-01-08T08:27:44.220Z,9.78
2023-01-08T08:30:13.181Z,9.85
2023-01-08T08:32:41.050Z,9.91
2023-01-08T08:35:09.054Z,9.96
2023-01-08T08:37:36.798Z,10.03
2023-01-08T08:40:04.695Z,10.10
2023-01-08T08:42:32.599Z,10.18
2023-01-08T08:45:00.000Z,10.23
2023-01-08T08:47:27.836Z,10.29
2023-01-08T08:49:55.348Z,10.37
2023-01-08T08:52:23.129Z,10.42
2023-01-08T08:54:50.718Z,10.50
2023-01-08T08:57:19.550Z,10.56
2023-01-08T08:59:47.118Z,10.62
2023-01-08T09:02:15.136Z,10.67
2023-01-08T09:04:42.756Z,10.74
2023-01-08T09:07:10.795Z,10.79
2023-01-08T09:09:38.338Z,10.83
2023-01-08T09:12:07.519Z,10.88
2023-01-08T09:14:34.993Z,10.92
2023-01-08T09:17:02.877Z,10.97
2023-01-08T09:19:30.400Z,11.01
2023-01-08T09:21:58.148Z,11.07
2023-01-08T09:24:25.668Z,11.10
2023-01-08T09:26:54.679Z,11.13
2023-01-08T09:29:22.261Z,11.17
2023-01-08T09:31:50.339Z,11.19
2023-01-08T09:34:17.951Z,11.21
2023-01-08T09:36:45.741Z,11.26
2023-01-08T09:39:13.314Z,11.28
2023-01-08T09:41:47.658Z,11.33
2023-01-08T09:44:28.032Z,11.38
2023-01-08T09:46:56.861Z,11.40
2023-01-08T09:49:44.955Z,11.47
2023-01-08T09:52:15.108Z,11.51
2023-01-08T09:54:42.657Z,11.56
2023-01-08T09:57:18.163Z,11.61
2023-01-08T09:59:48.043Z,11.70
2023-01-08T10:02:22.875Z,11.77
2023-01-08T10:04:57.568Z,11.84
2023-01-08T10:07:27.856Z,11.94
2023-01-08T10:09:56.476Z,12.02
2023-01-08T10:12:31.876Z,12.11
2023-01-08T10:15:15.822Z,12.20
2023-01-08T10:18:02.256Z,12.26
2023-01-08T10:20:31.703Z,12.33
2023-01-08T10:23:17.744Z,12.38
2023-01-08T10:26:00.730Z,12.45
2023-01-08T10:28:38.080Z,12.50
2023-01-08T10:31:11.471Z,12.57
2023-01-08T10:33:46.546Z,12.65
2023-01-08T10:36:19.048Z,12.71
2023-01-08T10:39:00.855Z,12.78
2023-01-08T10:41:29.368Z,12.83
2023-01-08T10:44:04.893Z,12.90
2023-01-08T10:46:36.948Z,12.96
2023-01-08T10:49:07.858Z,13.04
2023-01-08T10:51:35.495Z,13.13
2023-01-08T10:54:24.441Z,13.22
2023-01-08T10:56:51.948Z,13.32
2023-01-08T10:59:22.161Z,13.42
2023-01-08T11:01:52.739Z,13.53
2023-01-08T11:04:35.330Z,13.63
2023-01-08T11:07:07.054Z,13.72
2023-01-08T11:09:46.488Z,13.83
2023-01-08T11:12:41.082Z,13.97
2023-01-08T11:15:39.240Z,14.13
2023-01-08T11:18:27.278Z,14.26
2023-01-08T11:21:24.448Z,14.39
2023-01-08T11:24:18.676Z,14.56
2023-01-08T11:26:57.240Z,14.74
2023-01-08T11:30:00.959Z,14.88
2023-01-08T11:32:46.932Z,15.04
2023-01-08T11:35:43.966Z,15.17
2023-01-08T11:38:13.769Z,15.30
2023-01-08T11:40:58.945Z,15.44
2023-01-08T11:44:23.999Z,15.55
2023-01-08T11:47:43.061Z,15.67
2023-01-08T11:50:28.377Z,15.73
2023-01-08T11:53:18.029Z,15.79
2023-01-08T11:56:08.009Z,15.87
2023-01-08T11:58:55.592Z,15.96
2023-01-08T12:01:51.340Z,16.08
2023-01-08T12:04:29.034Z,16.22
2023-01-08T12:07:04.966Z,16.30
2023-01-08T12:09:48.886Z,16.38
2023-01-08T12:22:08.893Z,17.02
2023-01-08T12:25:03.329Z,17.26
2023-01-08T12:28:18.310Z,17.45
2023-01-08T12:31:28.625Z,17.51
2023-01-08T12:34:12.300Z,17.64
2023-01-08T12:36:54.986Z,17.83
2023-01-08T12:39:36.144Z,17.99
2023-01-08T12:42:14.167Z,18.16
2023-01-08T12:44:41.914Z,18.26
2023-01-08T12:47:18.486Z,18.42
2023-01-08T12:50:04.301Z,18.58
2023-01-08T12:52:53.714Z,18.72
2023-01-08T12:55:56.213Z,18.83
2023-01-08T12:58:39.676Z,18.84
2023-01-08T13:01:49.590Z,18.99
2023-01-08T13:04:18.224Z,19.06
2023-01-08T13:07:03.341Z,19.25
2023-01-08T13:09:32.905Z,19.39
2023-01-08T13:12:00.920Z,19.55
2023-01-08T13:14:29.181Z,19.70
2023-01-08T13:17:08.087Z,19.86
2023-01-08T13:19:44.875Z,20.01
2023-01-08T13:22:34.388Z,20.07
2023-01-08T13:25:17.483Z,20.24
2023-01-08T13:27:46.975Z,20.36
2023-01-08T13:30:38.993Z,20.35
2023-01-08T13:33:26.539Z,20.44
2023-01-08T13:36:12.814Z,20.62
2023-01-08T13:38:41.135Z,20.81
2023-01-08T13:41:31.656Z,20.95
2023-01-08T13:44:16.328Z,21.11
2023-01-08T13:46:52.823Z,21.16
2023-01-08T13:49:53.254Z,21.14
2023-01-08T13:52:34.724Z,20.79
2023-01-08T13:55:19.990Z,20.39
2023-01-08T13:57:53.777Z,19.77
2023-01-08T14:00:45.619Z,19.16
2023-01-08T14:03:30.231Z,18.47
2023-01-08T14:06:21.552Z,17.95
2023-01-08T14:08:53.224Z,17.45
2023-01-08T14:11:24.636Z,17.06
2023-01-08T14:13:52.578Z,16.67
2023-01-08T14:16:21.679Z,16.30
2023-01-08T14:18:51.198Z,16.01
2023-01-08T14:21:23.512Z,15.75
2023-01-08T14:23:54.038Z,15.51
2023-01-08T14:26:36.635Z,15.29
2023-01-08T14:29:22.657Z,15.04
2023-01-08T14:31:57.519Z,14.82
2023-01-08T14:34:30.087Z,14.67
2023-01-08T14:36:57.854Z,14.54
2023-01-08T14:39:31.632Z,14.56
2023-01-08T14:42:26.012Z,14.69
2023-01-08T14:45:01.998Z,14.65
2023-01-08T14:47:36.867Z,14.49
2023-01-08T14:50:06.008Z,14.35
2023-01-08T14:52:35.495Z,14.20
2023-01-08T14:55:03.956Z,14.05
2023-01-08T14:57:31.711Z,13.91
2023-01-08T15:00:02.429Z,13.79
2023-01-08T15:02:33.807Z,13.68
2023-01-08T15:05:14.271Z,13.57
2023-01-08T15:08:21.523Z,13.47
2023-01-08T15:11:06.754Z,13.33
2023-01-08T15:13:40.464Z,13.26
2023-01-08T15:16:21.853Z,13.17
2023-01-08T15:19:14.995Z,13.11
2023-01-08T15:21:59.500Z,13.04
2023-01-08T15:24:41.567Z,12.99
2023-01-08T15:27:19.953Z,12.91
2023-01-08T15:30:00.926Z,12.83
2023-01-08T15:32:34.709Z,12.75
2023-01-08T15:35:02.744Z,12.67
2023-01-08T15:37:30.572Z,12.59
2023-01-08T15:39:58.183Z,12.53
2023-01-08T15:42:51.011Z,12.44
2023-01-08T15:45:25.022Z,12.35
2023-01-08T15:47:52.888Z,12.29
2023-01-08T15:50:20.837Z,12.23
2023-01-08T15:52:48.953Z,12.18
2023-01-08T15:55:21.783Z,12.14
2023-01-08T15:57:50.355Z,12.09
2023-01-08T16:00:20.313Z,12.05
2023-01-08T16:02:51.564Z,12.02
2023-01-08T16:05:22.302Z,11.99
2023-01-08T16:07:50.542Z,11.95
2023-01-08T16:10:18.553Z,11.92
2023-01-08T16:12:47.275Z,11.92
2023-01-08T16:15:16.616Z,11.92
2023-01-08T16:17:45.039Z,11.89
2023-01-08T16:20:14.238Z,11.90
2023-01-08T16:22:42.202Z,11.87
2023-01-08T16:25:10.465Z,11.87
2023-01-08T16:27:39.502Z,11.83
2023-01-08T16:30:10.560Z,11.80
2023-01-08T16:32:38.416Z,11.76
2023-01-08T16:35:07.145Z,11.73
2023-01-08T16:37:34.979Z,11.74
2023-01-08T16:40:02.612Z,11.72
2023-01-08T16:42:30.784Z,11.74
2023-01-08T16:44:58.304Z,11.72
2023-01-08T16:47:26.173Z,11.70
2023-01-08T16:49:54.563Z,11.72
2023-01-08T16:52:22.486Z,11.74
2023-01-08T16:54:49.989Z,11.77
2023-01-08T16:57:17.875Z,11.76
2023-01-08T16:59:45.508Z,11.77
2023-01-08T17:02:13.422Z,11.80
2023-01-08T17:04:40.977Z,11.82
2023-01-08T17:07:08.920Z,11.85
2023-01-08T17:09:36.824Z,11.87
2023-01-08T17:12:05.154Z,11.86
2023-01-08T17:14:32.789Z,11.89
2023-01-08T17:17:00.805Z,11.91
2023-01-08T17:19:28.401Z,11.93
2023-01-08T17:21:56.306Z,11.97
2023-01-08T17:24:24.261Z,11.99
2023-01-08T17:26:58.749Z,11.96
2023-01-08T17:29:59.278Z,11.96
2023-01-08T17:33:51.429Z,11.94
2023-01-08T17:36:34.437Z,11.91
2023-01-08T17:39:05.177Z,11.89
2023-01-08T17:41:54.779Z,11.87
2023-01-08T17:44:23.221Z,11.83
2023-01-08T17:46:50.876Z,11.80
2023-01-08T17:49:19.396Z,11.78
2023-01-08T17:51:46.988Z,11.75
2023-01-08T17:54:17.154Z,11.76
2023-01-08T17:56:45.246Z,11.73
2023-01-08T17:59:18.367Z,11.70
2023-01-08T18:01:46.314Z,11.67
2023-01-08T18:04:15.239Z,11.64
2023-01-08T18:06:44.197Z,11.62
2023-01-08T18:09:12.720Z,11.58
2023-01-08T18:11:42.094Z,11.54
2023-01-08T18:14:13.702Z,11.53
2023-01-08T18:16:45.519Z,11.50
2023-01-08T18:19:15.795Z,11.46
2023-01-08T18:21:47.887Z,11.44
2023-01-08T18:24:19.094Z,11.42
2023-01-08T18:26:46.742Z,11.39
2023-01-08T18:29:20.705Z,11.39
2023-01-08T18:31:51.132Z,11.37
2023-01-08T18:34:20.008Z,11.35
2023-01-08T18:36:50.962Z,11.30
2023-01-08T18:39:22.564Z,11.28
2023-01-08T18:42:16.388Z,11.24
2023-01-08T18:44:48.449Z,11.22
2023-01-08T18:47:17.753Z,11.22
2023-01-08T18:49:46.871Z,11.23
2023-01-08T18:52:15.216Z,11.23
2023-01-08T18:54:43.232Z,11.19
2023-01-08T18:57:11.152Z,11.18
2023-01-08T18:59:39.023Z,11.13
2023-01-08T19:02:06.729Z,11.11
2023-01-08T19:04:36.205Z,11.09
2023-01-08T19:07:04.060Z,11.06
2023-01-08T19:09:32.163Z,11.03
2023-01-08T19:11:59.710Z,11.02
2023-01-08T19:14:27.494Z,11.00
2023-01-08T19:16:56.500Z,11.01
2023-01-08T19:19:24.837Z,11.00
2023-01-08T19:21:52.308Z,10.99
2023-01-08T19:24:21.076Z,11.03
2023-01-08T19:26:48.613Z,11.04
2023-01-08T19:29:17.087Z,11.06
2023-01-08T19:31:45.275Z,11.09
2023-01-08T19:34:13.393Z,11.13
2023-01-08T19:36:43.738Z,11.11
2023-01-08T19:39:11.820Z,11.10
2023-01-08T19:41:58.694Z,11.10
2023-01-08T19:44:26.629Z,11.08
2023-01-08T19:46:54.541Z,11.09
2023-01-08T19:49:23.660Z,11.12
2023-01-08T19:51:52.696Z,11.11
2023-01-08T19:54:31.554Z,11.11
2023-01-08T19:56:59.804Z,11.12
2023-01-08T19:59:27.745Z,11.13
2023-01-08T20:01:55.338Z,11.13
2023-01-08T20:04:23.211Z,11.14
2023-01-08T20:06:52.439Z,11.13
2023-01-08T20:09:20.244Z,11.17
2023-01-08T20:11:47.719Z,11.16
2023-01-08T20:14:15.638Z,11.17
2023-01-08T20:16:43.211Z,11.16
2023-01-08T20:19:11.136Z,11.19
2023-01-08T20:21:39.104Z,11.20
2023-01-08T20:24:12.201Z,11.22
2023-01-08T20:26:44.449Z,11.23
2023-01-08T20:29:14.762Z,11.25
2023-01-08T20:31:44.207Z,11.27
2023-01-08T20:34:15.642Z,11.25
2023-01-08T20:36:45.277Z,11.26
2023-01-08T20:39:16.629Z,11.28
2023-01-08T20:41:55.259Z,11.28
2023-01-08T20:44:29.031Z,11.26
2023-01-08T20:46:56.659Z,11.27
2023-01-08T20:49:26.646Z,11.25
2023-01-08T20:51:59.180Z,11.26
2023-01-08T20:54:30.002Z,11.25
2023-01-08T20:56:59.137Z,11.24
2023-01-08T20:59:28.283Z,11.25
2023-01-08T21:02:22.111Z,11.21
2023-01-08T21:05:36.355Z,11.17
2023-01-08T21:08:06.550Z,11.17
2023-01-08T21:10:35.788Z,11.17
2023-01-08T21:13:03.732Z,11.16
2023-01-08T21:15:31.410Z,11.10
2023-01-08T21:17:59.407Z,11.08
2023-01-08T21:20:27.028Z,11.10
2023-01-08T21:22:57.238Z,11.11
2023-01-08T21:25:24.979Z,11.12
2023-01-08T21:27:52.870Z,11.10
2023-01-08T21:30:27.108Z,11.07
2023-01-08T21:32:58.076Z,10.99
2023-01-08T21:35:27.461Z,10.93
2023-01-08T21:37:55.376Z,10.90
2023-01-08T21:40:23.068Z,10.83
2023-01-08T21:43:10.091Z,10.80
2023-01-08T21:45:37.705Z,10.71
2023-01-08T21:48:06.143Z,10.63
2023-01-08T21:50:33.863Z,10.59
2023-01-08T21:53:20.435Z,10.57
2023-01-08T21:55:47.879Z,10.50
2023-01-08T21:58:16.596Z,10.47
2023-01-08T22:00:44.116Z,10.45
2023-01-08T22:03:11.982Z,10.41
2023-01-08T22:05:39.555Z,10.37
2023-01-08T22:08:08.729Z,10.38
2023-01-08T22:10:36.386Z,10.32
2023-01-08T22:13:04.650Z,10.33
2023-01-08T22:15:32.356Z,10.29
2023-01-08T22:18:00.234Z,10.28
2023-01-08T22:20:27.779Z,10.29
2023-01-08T22:22:55.661Z,10.27
2023-01-08T22:25:23.235Z,10.24
2023-01-08T22:27:55.457Z,10.26
2023-01-08T22:30:23.507Z,10.29
2023-01-08T22:32:51.321Z,10.25
2023-01-08T22:35:18.887Z,10.25
2023-01-08T22:37:47.244Z,10.23
2023-01-08T22:40:15.522Z,10.21
2023-01-08T22:42:43.418Z,10.22
2023-01-08T22:45:11.279Z,10.25
2023-01-08T22:47:39.087Z,10.24
2023-01-08T22:50:07.578Z,10.22
2023-01-08T22:52:35.423Z,10.23
2023-01-08T22:55:03.104Z,10.25
2023-01-08T22:57:30.949Z,10.26
2023-01-08T22:59:58.789Z,10.29
2023-01-08T23:02:26.690Z,10.46
2023-01-08T23:04:55.765Z,10.73
2023-01-08T23:07:23.659Z,10.94
2023-01-08T23:09:51.965Z,11.06
2023-01-08T23:12:20.995Z,11.09
2023-01-08T23:14:48.701Z,11.10
2023-01-08T23:17:44.594Z,11.11
2023-01-08T23:20:20.741Z,11.12
2023-01-08T23:22:49.293Z,11.17
2023-01-08T23:25:17.006Z,11.16
2023-01-08T23:27:45.993Z,11.17
2023-01-08T23:30:13.889Z,11.12
2023-01-08T23:32:41.758Z,11.15
2023-01-08T23:35:09.742Z,11.26
2023-01-08T23:37:37.575Z,11.40
2023-01-08T23:40:05.826Z,11.43
2023-01-08T23:42:33.690Z,11.43
2023-01-08T23:45:01.311Z,11.42
2023-01-08T23:47:29.489Z,11.47
2023-01-08T23:49:57.138Z,11.49
2023-01-08T23:52:25.162Z,11.41
2023-01-08T23:54:52.841Z,11.21
2023-01-08T23:57:20.786Z,10.94
2023-01-08T23:59:48.601Z,10.69
